sensor_id;sensor_type;location;lat;lon;timestamp;P1;durP1;ratioP1;P2;durP2;ratioP2
69991;SDS011;57332;51.320;-0.580;2024-01-30T00:02:26;11.00;;;4.45;;
69991;SDS011;57332;51.320;-0.580;2024-01-30T00:04:53;14.23;;;4.78;;
69991;SDS011;57332;51.320;-0.580;2024-01-30T00:07:20;10.63;;;4.28;;
69991;SDS011;57332;51.320;-0.580;2024-01-30T00:09:47;10.07;;;4.22;;
69991;SDS011;57332;51.320;-0.580;2024-01-30T00:12:15;11.90;;;4.13;;
69991;SDS011;57332;51.320;-0.580;2024-01-30T00:14:42;11.70;;;4.00;;
69991;SDS011;57332;51.320;-0.580;2024-01-30T00:17:12;9.63;;;3.83;;
69991;SDS011;57332;51.320;-0.580;2024-01-30T00:19:39;9.05;;;3.67;;
69991;SDS011;57332;51.320;-0.580;2024-01-30T00:22:06;9.65;;;3.63;;
69991;SDS011;57332;51.320;-0.580;2024-01-30T00:24:34;9.82;;;3.70;;
69991;SDS011;57332;51.320;-0.580;2024-01-30T00:27:01;6.65;;;3.25;;
69991;SDS011;57332;51.320;-0.580;2024-01-30T00:29:28;10.90;;;3.35;;
69991;SDS011;57332;51.320;-0.580;2024-01-30T00:31:57;6.40;;;2.92;;
69991;SDS011;57332;51.320;-0.580;2024-01-30T00:34:24;5.97;;;2.35;;
69991;SDS011;57332;51.320;-0.580;2024-01-30T00:36:51;11.90;;;2.42;;
69991;SDS011;57332;51.320;-0.580;2024-01-30T00:39:18;4.57;;;1.73;;
69991;SDS011;57332;51.320;-0.580;2024-01-30T00:41:46;5.95;;;2.25;;
69991;SDS011;57332;51.320;-0.580;2024-01-30T00:44:13;3.75;;;1.70;;
69991;SDS011;57332;51.320;-0.580;2024-01-30T00:46:40;10.63;;;2.67;;
69991;SDS011;57332;51.320;-0.580;2024-01-30T00:49:06;7.55;;;1.65;;
69991;SDS011;57332;51.320;-0.580;2024-01-30T00:51:33;6.10;;;1.33;;
69991;SDS011;57332;51.320;-0.580;2024-01-30T00:54:00;4.00;;;1.00;;
69991;SDS011;57332;51.320;-0.580;2024-01-30T00:56:27;4.88;;;1.30;;
69991;SDS011;57332;51.320;-0.580;2024-01-30T00:58:54;6.18;;;1.20;;
69991;SDS011;57332;51.320;-0.580;2024-01-30T01:01:22;4.63;;;0.90;;
69991;SDS011;57332;51.320;-0.580;2024-01-30T01:03:49;3.65;;;0.80;;
69991;SDS011;57332;51.320;-0.580;2024-01-30T01:06:16;3.30;;;0.85;;
69991;SDS011;57332;51.320;-0.580;2024-01-30T01:08:43;2.75;;;0.82;;
69991;SDS011;57332;51.320;-0.580;2024-01-30T01:11:10;2.03;;;0.70;;
69991;SDS011;57332;51.320;-0.580;2024-01-30T01:13:37;2.88;;;0.70;;
69991;SDS011;57332;51.320;-0.580;2024-01-30T01:16:04;2.90;;;0.60;;
69991;SDS011;57332;51.320;-0.580;2024-01-30T01:18:31;2.75;;;0.63;;
69991;SDS011;57332;51.320;-0.580;2024-01-30T01:20:58;3.75;;;0.50;;
69991;SDS011;57332;51.320;-0.580;2024-01-30T01:23:25;1.98;;;0.60;;
69991;SDS011;57332;51.320;-0.580;2024-01-30T01:25:52;2.45;;;0.52;;
69991;SDS011;57332;51.320;-0.580;2024-01-30T01:28:21;3.58;;;0.70;;
69991;SDS011;57332;51.320;-0.580;2024-01-30T01:30:48;4.90;;;0.43;;
69991;SDS011;57332;51.320;-0.580;2024-01-30T01:33:15;2.15;;;0.40;;
69991;SDS011;57332;51.320;-0.580;2024-01-30T01:35:42;1.50;;;0.40;;
69991;SDS011;57332;51.320;-0.580;2024-01-30T01:38:09;1.48;;;0.22;;
69991;SDS011;57332;51.320;-0.580;2024-01-30T01:40:36;3.15;;;0.22;;
69991;SDS011;57332;51.320;-0.580;2024-01-30T01:43:03;1.95;;;0.30;;
69991;SDS011;57332;51.320;-0.580;2024-01-30T01:45:30;0.10;;;0.03;;
69991;SDS011;57332;51.320;-0.580;2024-01-30T01:47:57;0.52;;;0.30;;
69991;SDS011;57332;51.320;-0.580;2024-01-30T01:50:24;3.75;;;0.55;;
69991;SDS011;57332;51.320;-0.580;2024-01-30T01:52:51;2.25;;;0.30;;
69991;SDS011;57332;51.320;-0.580;2024-01-30T01:55:19;3.72;;;0.40;;
69991;SDS011;57332;51.320;-0.580;2024-01-30T01:57:49;0.82;;;0.40;;
69991;SDS011;57332;51.320;-0.580;2024-01-30T02:00:16;1.00;;;0.30;;
69991;SDS011;57332;51.320;-0.580;2024-01-30T02:02:43;0.45;;;0.30;;
69991;SDS011;57332;51.320;-0.580;2024-01-30T02:05:12;3.05;;;0.30;;
69991;SDS011;57332;51.320;-0.580;2024-01-30T02:07:38;1.33;;;0.35;;
69991;SDS011;57332;51.320;-0.580;2024-01-30T02:10:07;1.95;;;0.35;;
69991;SDS011;57332;51.320;-0.580;2024-01-30T02:12:34;3.75;;;0.40;;
69991;SDS011;57332;51.320;-0.580;2024-01-30T02:15:01;2.17;;;0.30;;
69991;SDS011;57332;51.320;-0.580;2024-01-30T02:17:28;1.88;;;0.50;;
69991;SDS011;57332;51.320;-0.580;2024-01-30T02:19:55;2.30;;;0.40;;
69991;SDS011;57332;51.320;-0.580;2024-01-30T02:22:22;0.90;;;0.30;;
69991;SDS011;57332;51.320;-0.580;2024-01-30T02:24:49;1.00;;;0.30;;
69991;SDS011;57332;51.320;-0.580;2024-01-30T02:27:16;0.30;;;0.20;;
69991;SDS011;57332;51.320;-0.580;2024-01-30T02:29:43;1.15;;;0.30;;
69991;SDS011;57332;51.320;-0.580;2024-01-30T02:32:10;0.88;;;0.50;;
69991;SDS011;57332;51.320;-0.580;2024-01-30T02:34:37;1.45;;;0.43;;
69991;SDS011;57332;51.320;-0.580;2024-01-30T02:37:04;1.45;;;0.73;;
69991;SDS011;57332;51.320;-0.580;2024-01-30T02:39:31;3.75;;;0.70;;
69991;SDS011;57332;51.320;-0.580;2024-01-30T02:41:58;5.60;;;0.70;;
69991;SDS011;57332;51.320;-0.580;2024-01-30T02:44:24;2.17;;;0.40;;
69991;SDS011;57332;51.320;-0.580;2024-01-30T02:46:51;2.13;;;0.47;;
69991;SDS011;57332;51.320;-0.580;2024-01-30T02:49:20;3.25;;;0.77;;
69991;SDS011;57332;51.320;-0.580;2024-01-30T02:51:48;5.22;;;0.70;;
69991;SDS011;57332;51.320;-0.580;2024-01-30T02:54:15;0.73;;;0.60;;
69991;SDS011;57332;51.320;-0.580;2024-01-30T02:56:42;2.97;;;0.60;;
69991;SDS011;57332;51.320;-0.580;2024-01-30T02:59:09;3.75;;;0.73;;
69991;SDS011;57332;51.320;-0.580;2024-01-30T03:01:45;1.65;;;0.80;;
69991;SDS011;57332;51.320;-0.580;2024-01-30T03:04:13;2.35;;;0.57;;
69991;SDS011;57332;51.320;-0.580;2024-01-30T03:06:44;4.47;;;1.00;;
69991;SDS011;57332;51.320;-0.580;2024-01-30T03:09:11;2.90;;;0.80;;
69991;SDS011;57332;51.320;-0.580;2024-01-30T03:11:38;5.20;;;1.08;;
69991;SDS011;57332;51.320;-0.580;2024-01-30T03:14:05;2.63;;;1.08;;
69991;SDS011;57332;51.320;-0.580;2024-01-30T03:16:31;3.05;;;1.05;;
69991;SDS011;57332;51.320;-0.580;2024-01-30T03:18:59;1.63;;;0.77;;
69991;SDS011;57332;51.320;-0.580;2024-01-30T03:21:27;4.85;;;0.93;;
69991;SDS011;57332;51.320;-0.580;2024-01-30T03:23:54;2.17;;;0.73;;
69991;SDS011;57332;51.320;-0.580;2024-01-30T03:26:21;2.60;;;0.73;;
69991;SDS011;57332;51.320;-0.580;2024-01-30T03:28:48;2.05;;;0.80;;
69991;SDS011;57332;51.320;-0.580;2024-01-30T03:31:15;4.20;;;0.80;;
69991;SDS011;57332;51.320;-0.580;2024-01-30T03:33:42;2.53;;;0.82;;
69991;SDS011;57332;51.320;-0.580;2024-01-30T03:36:10;2.65;;;0.77;;
69991;SDS011;57332;51.320;-0.580;2024-01-30T03:38:37;1.27;;;0.60;;
69991;SDS011;57332;51.320;-0.580;2024-01-30T03:41:07;1.20;;;0.70;;
69991;SDS011;57332;51.320;-0.580;2024-01-30T03:43:34;2.85;;;0.70;;
69991;SDS011;57332;51.320;-0.580;2024-01-30T03:46:01;0.77;;;0.50;;
69991;SDS011;57332;51.320;-0.580;2024-01-30T03:48:28;1.45;;;0.63;;
69991;SDS011;57332;51.320;-0.580;2024-01-30T03:50:55;1.35;;;0.60;;
69991;SDS011;57332;51.320;-0.580;2024-01-30T03:53:22;1.48;;;0.60;;
69991;SDS011;57332;51.320;-0.580;2024-01-30T03:55:49;1.35;;;0.60;;
69991;SDS011;57332;51.320;-0.580;2024-01-30T03:58:16;4.00;;;0.85;;
69991;SDS011;57332;51.320;-0.580;2024-01-30T04:00:43;2.08;;;0.80;;
69991;SDS011;57332;51.320;-0.580;2024-01-30T04:03:10;1.70;;;0.68;;
69991;SDS011;57332;51.320;-0.580;2024-01-30T04:05:37;1.40;;;0.65;;
69991;SDS011;57332;51.320;-0.580;2024-01-30T04:08:04;1.83;;;0.60;;
69991;SDS011;57332;51.320;-0.580;2024-01-30T04:10:31;0.98;;;0.60;;
69991;SDS011;57332;51.320;-0.580;2024-01-30T04:12:58;1.02;;;0.70;;
69991;SDS011;57332;51.320;-0.580;2024-01-30T04:15:25;1.05;;;0.60;;
69991;SDS011;57332;51.320;-0.580;2024-01-30T04:17:52;2.35;;;0.70;;
69991;SDS011;57332;51.320;-0.580;2024-01-30T04:20:19;1.50;;;0.70;;
69991;SDS011;57332;51.320;-0.580;2024-01-30T04:22:46;3.25;;;0.85;;
69991;SDS011;57332;51.320;-0.580;2024-01-30T04:25:13;0.80;;;0.52;;
69991;SDS011;57332;51.320;-0.580;2024-01-30T04:27:40;2.00;;;0.57;;
69991;SDS011;57332;51.320;-0.580;2024-01-30T04:30:07;2.35;;;0.70;;
69991;SDS011;57332;51.320;-0.580;2024-01-30T04:32:35;1.60;;;0.75;;
69991;SDS011;57332;51.320;-0.580;2024-01-30T04:35:03;1.70;;;0.80;;
69991;SDS011;57332;51.320;-0.580;2024-01-30T04:37:35;2.67;;;0.70;;
69991;SDS011;57332;51.320;-0.580;2024-01-30T04:40:02;3.00;;;0.60;;
69991;SDS011;57332;51.320;-0.580;2024-01-30T04:42:29;5.47;;;1.00;;
69991;SDS011;57332;51.320;-0.580;2024-01-30T04:44:56;3.05;;;0.65;;
69991;SDS011;57332;51.320;-0.580;2024-01-30T04:47:23;1.05;;;0.63;;
69991;SDS011;57332;51.320;-0.580;2024-01-30T04:49:51;2.28;;;0.70;;
69991;SDS011;57332;51.320;-0.580;2024-01-30T04:52:18;1.27;;;0.75;;
69991;SDS011;57332;51.320;-0.580;2024-01-30T04:54:45;1.10;;;0.50;;
69991;SDS011;57332;51.320;-0.580;2024-01-30T04:57:12;0.73;;;0.57;;
69991;SDS011;57332;51.320;-0.580;2024-01-30T04:59:39;1.15;;;0.50;;
69991;SDS011;57332;51.320;-0.580;2024-01-30T05:02:06;1.40;;;0.50;;
69991;SDS011;57332;51.320;-0.580;2024-01-30T05:04:34;0.95;;;0.40;;
69991;SDS011;57332;51.320;-0.580;2024-01-30T05:07:01;1.83;;;0.70;;
69991;SDS011;57332;51.320;-0.580;2024-01-30T05:09:28;1.25;;;0.65;;
69991;SDS011;57332;51.320;-0.580;2024-01-30T05:11:55;1.60;;;0.55;;
69991;SDS011;57332;51.320;-0.580;2024-01-30T05:14:22;1.42;;;0.43;;
69991;SDS011;57332;51.320;-0.580;2024-01-30T05:16:49;2.60;;;0.85;;
69991;SDS011;57332;51.320;-0.580;2024-01-30T05:19:16;1.88;;;0.63;;
69991;SDS011;57332;51.320;-0.580;2024-01-30T05:21:44;1.35;;;0.52;;
69991;SDS011;57332;51.320;-0.580;2024-01-30T05:24:11;1.98;;;0.63;;
69991;SDS011;57332;51.320;-0.580;2024-01-30T05:26:38;1.92;;;0.60;;
69991;SDS011;57332;51.320;-0.580;2024-01-30T05:29:05;1.50;;;0.65;;
69991;SDS011;57332;51.320;-0.580;2024-01-30T05:31:36;1.65;;;0.65;;
69991;SDS011;57332;51.320;-0.580;2024-01-30T05:34:03;2.88;;;0.90;;
69991;SDS011;57332;51.320;-0.580;2024-01-30T05:36:29;1.38;;;0.50;;
69991;SDS011;57332;51.320;-0.580;2024-01-30T05:38:56;1.27;;;0.60;;
69991;SDS011;57332;51.320;-0.580;2024-01-30T05:41:24;2.05;;;0.63;;
69991;SDS011;57332;51.320;-0.580;2024-01-30T05:43:51;3.58;;;1.00;;
69991;SDS011;57332;51.320;-0.580;2024-01-30T05:46:18;2.63;;;1.17;;
69991;SDS011;57332;51.320;-0.580;2024-01-30T05:48:48;2.97;;;0.90;;
69991;SDS011;57332;51.320;-0.580;2024-01-30T05:51:15;4.70;;;1.08;;
69991;SDS011;57332;51.320;-0.580;2024-01-30T05:53:42;2.20;;;0.82;;
69991;SDS011;57332;51.320;-0.580;2024-01-30T05:56:09;3.08;;;1.00;;
69991;SDS011;57332;51.320;-0.580;2024-01-30T05:58:36;3.67;;;1.15;;
69991;SDS011;57332;51.320;-0.580;2024-01-30T06:01:07;4.35;;;1.15;;
69991;SDS011;57332;51.320;-0.580;2024-01-30T06:03:35;3.75;;;1.20;;
69991;SDS011;57332;51.320;-0.580;2024-01-30T06:06:02;2.47;;;1.20;;
69991;SDS011;57332;51.320;-0.580;2024-01-30T06:08:29;3.70;;;1.33;;
69991;SDS011;57332;51.320;-0.580;2024-01-30T06:10:56;3.75;;;1.40;;
69991;SDS011;57332;51.320;-0.580;2024-01-30T06:13:23;3.25;;;1.38;;
69991;SDS011;57332;51.320;-0.580;2024-01-30T06:15:49;5.68;;;1.60;;
69991;SDS011;57332;51.320;-0.580;2024-01-30T06:18:16;5.43;;;1.55;;
69991;SDS011;57332;51.320;-0.580;2024-01-30T06:20:43;3.65;;;1.38;;
69991;SDS011;57332;51.320;-0.580;2024-01-30T06:23:10;4.47;;;1.80;;
69991;SDS011;57332;51.320;-0.580;2024-01-30T06:25:39;4.70;;;1.80;;
69991;SDS011;57332;51.320;-0.580;2024-01-30T06:28:06;4.68;;;1.50;;
69991;SDS011;57332;51.320;-0.580;2024-01-30T06:30:33;4.55;;;1.83;;
69991;SDS011;57332;51.320;-0.580;2024-01-30T06:33:00;4.13;;;1.77;;
69991;SDS011;57332;51.320;-0.580;2024-01-30T06:35:27;4.18;;;1.45;;
69991;SDS011;57332;51.320;-0.580;2024-01-30T06:37:55;7.43;;;1.90;;
69991;SDS011;57332;51.320;-0.580;2024-01-30T06:40:22;5.45;;;1.98;;
69991;SDS011;57332;51.320;-0.580;2024-01-30T06:42:49;4.95;;;2.30;;
69991;SDS011;57332;51.320;-0.580;2024-01-30T06:45:16;4.82;;;1.73;;
69991;SDS011;57332;51.320;-0.580;2024-01-30T06:47:43;5.13;;;1.70;;
69991;SDS011;57332;51.320;-0.580;2024-01-30T06:50:10;6.03;;;1.70;;
69991;SDS011;57332;51.320;-0.580;2024-01-30T06:52:37;5.90;;;1.98;;
69991;SDS011;57332;51.320;-0.580;2024-01-30T06:55:04;3.78;;;1.58;;
69991;SDS011;57332;51.320;-0.580;2024-01-30T06:57:31;5.40;;;1.73;;
69991;SDS011;57332;51.320;-0.580;2024-01-30T06:59:58;2.97;;;1.50;;
69991;SDS011;57332;51.320;-0.580;2024-01-30T07:02:25;4.18;;;1.77;;
69991;SDS011;57332;51.320;-0.580;2024-01-30T07:04:52;2.88;;;1.40;;
69991;SDS011;57332;51.320;-0.580;2024-01-30T07:07:19;4.35;;;1.75;;
69991;SDS011;57332;51.320;-0.580;2024-01-30T07:09:46;3.85;;;1.52;;
69991;SDS011;57332;51.320;-0.580;2024-01-30T07:12:14;4.22;;;1.63;;
69991;SDS011;57332;51.320;-0.580;2024-01-30T07:14:41;3.40;;;1.33;;
69991;SDS011;57332;51.320;-0.580;2024-01-30T07:17:08;4.20;;;1.58;;
69991;SDS011;57332;51.320;-0.580;2024-01-30T07:19:34;2.53;;;1.27;;
69991;SDS011;57332;51.320;-0.580;2024-01-30T07:22:01;2.33;;;1.20;;
69991;SDS011;57332;51.320;-0.580;2024-01-30T07:24:28;2.13;;;1.08;;
69991;SDS011;57332;51.320;-0.580;2024-01-30T07:26:55;2.65;;;1.10;;
69991;SDS011;57332;51.320;-0.580;2024-01-30T07:29:22;2.00;;;0.90;;
69991;SDS011;57332;51.320;-0.580;2024-01-30T07:31:49;1.88;;;0.90;;
69991;SDS011;57332;51.320;-0.580;2024-01-30T07:34:16;2.15;;;1.02;;
69991;SDS011;57332;51.320;-0.580;2024-01-30T07:36:43;1.85;;;0.90;;
69991;SDS011;57332;51.320;-0.580;2024-01-30T07:39:10;2.25;;;0.85;;
69991;SDS011;57332;51.320;-0.580;2024-01-30T07:41:37;1.35;;;0.80;;
69991;SDS011;57332;51.320;-0.580;2024-01-30T07:44:04;1.27;;;0.50;;
69991;SDS011;57332;51.320;-0.580;2024-01-30T07:46:31;1.05;;;0.80;;
69991;SDS011;57332;51.320;-0.580;2024-01-30T07:48:58;2.13;;;0.60;;
69991;SDS011;57332;51.320;-0.580;2024-01-30T07:51:25;1.40;;;0.70;;
69991;SDS011;57332;51.320;-0.580;2024-01-30T07:53:52;0.98;;;0.60;;
69991;SDS011;57332;51.320;-0.580;2024-01-30T07:56:19;1.70;;;0.50;;
69991;SDS011;57332;51.320;-0.580;2024-01-30T07:58:46;0.80;;;0.45;;
69991;SDS011;57332;51.320;-0.580;2024-01-30T08:01:14;1.20;;;0.47;;
69991;SDS011;57332;51.320;-0.580;2024-01-30T08:03:41;1.85;;;0.52;;
69991;SDS011;57332;51.320;-0.580;2024-01-30T08:06:09;0.85;;;0.38;;
69991;SDS011;57332;51.320;-0.580;2024-01-30T08:08:36;0.43;;;0.40;;
69991;SDS011;57332;51.320;-0.580;2024-01-30T08:11:04;0.40;;;0.30;;
69991;SDS011;57332;51.320;-0.580;2024-01-30T08:13:31;0.35;;;0.20;;
69991;SDS011;57332;51.320;-0.580;2024-01-30T08:15:58;1.63;;;0.25;;
69991;SDS011;57332;51.320;-0.580;2024-01-30T08:18:25;0.35;;;0.30;;
69991;SDS011;57332;51.320;-0.580;2024-01-30T08:20:53;0.57;;;0.30;;
69991;SDS011;57332;51.320;-0.580;2024-01-30T08:23:20;0.45;;;0.38;;
69991;SDS011;57332;51.320;-0.580;2024-01-30T08:25:46;0.20;;;0.20;;
69991;SDS011;57332;51.320;-0.580;2024-01-30T08:28:13;1.45;;;0.30;;
69991;SDS011;57332;51.320;-0.580;2024-01-30T08:30:42;0.90;;;0.32;;
69991;SDS011;57332;51.320;-0.580;2024-01-30T08:33:09;0.25;;;0.25;;
69991;SDS011;57332;51.320;-0.580;2024-01-30T08:35:36;0.38;;;0.30;;
69991;SDS011;57332;51.320;-0.580;2024-01-30T08:38:03;0.20;;;0.13;;
69991;SDS011;57332;51.320;-0.580;2024-01-30T08:40:30;0.32;;;0.15;;
69991;SDS011;57332;51.320;-0.580;2024-01-30T08:42:57;0.82;;;0.40;;
69991;SDS011;57332;51.320;-0.580;2024-01-30T08:45:24;0.32;;;0.30;;
69991;SDS011;57332;51.320;-0.580;2024-01-30T08:47:51;0.13;;;0.13;;
69991;SDS011;57332;51.320;-0.580;2024-01-30T08:50:18;0.65;;;0.30;;
69991;SDS011;57332;51.320;-0.580;2024-01-30T08:52:45;0.63;;;0.13;;
69991;SDS011;57332;51.320;-0.580;2024-01-30T08:55:14;0.40;;;0.20;;
69991;SDS011;57332;51.320;-0.580;2024-01-30T08:57:41;0.80;;;0.30;;
69991;SDS011;57332;51.320;-0.580;2024-01-30T09:00:08;0.65;;;0.30;;
69991;SDS011;57332;51.320;-0.580;2024-01-30T09:02:36;0.20;;;0.20;;
69991;SDS011;57332;51.320;-0.580;2024-01-30T09:05:04;0.20;;;0.20;;
69991;SDS011;57332;51.320;-0.580;2024-01-30T09:07:31;0.20;;;0.20;;
69991;SDS011;57332;51.320;-0.580;2024-01-30T09:09:58;1.00;;;0.35;;
69991;SDS011;57332;51.320;-0.580;2024-01-30T09:12:25;0.80;;;0.25;;
69991;SDS011;57332;51.320;-0.580;2024-01-30T09:14:52;0.98;;;0.22;;
69991;SDS011;57332;51.320;-0.580;2024-01-30T09:17:18;0.80;;;0.30;;
69991;SDS011;57332;51.320;-0.580;2024-01-30T09:19:46;0.40;;;0.28;;
69991;SDS011;57332;51.320;-0.580;2024-01-30T09:22:13;0.40;;;0.20;;
69991;SDS011;57332;51.320;-0.580;2024-01-30T09:24:40;0.90;;;0.30;;
69991;SDS011;57332;51.320;-0.580;2024-01-30T09:27:07;0.38;;;0.10;;
69991;SDS011;57332;51.320;-0.580;2024-01-30T09:29:34;0.93;;;0.40;;
69991;SDS011;57332;51.320;-0.580;2024-01-30T09:32:03;1.27;;;0.50;;
69991;SDS011;57332;51.320;-0.580;2024-01-30T09:34:30;0.63;;;0.32;;
69991;SDS011;57332;51.320;-0.580;2024-01-30T09:37:01;1.45;;;0.30;;
69991;SDS011;57332;51.320;-0.580;2024-01-30T09:39:28;1.63;;;0.40;;
69991;SDS011;57332;51.320;-0.580;2024-01-30T09:42:02;0.90;;;0.35;;
69991;SDS011;57332;51.320;-0.580;2024-01-30T09:44:31;1.50;;;0.60;;
69991;SDS011;57332;51.320;-0.580;2024-01-30T09:46:58;1.20;;;0.50;;
69991;SDS011;57332;51.320;-0.580;2024-01-30T09:49:31;0.52;;;0.40;;
69991;SDS011;57332;51.320;-0.580;2024-01-30T09:51:59;0.73;;;0.50;;
69991;SDS011;57332;51.320;-0.580;2024-01-30T09:54:27;0.85;;;0.22;;
69991;SDS011;57332;51.320;-0.580;2024-01-30T09:56:55;0.75;;;0.35;;
69991;SDS011;57332;51.320;-0.580;2024-01-30T09:59:21;1.88;;;0.40;;
69991;SDS011;57332;51.320;-0.580;2024-01-30T10:01:48;0.52;;;0.40;;
69991;SDS011;57332;51.320;-0.580;2024-01-30T10:04:16;2.13;;;0.38;;
69991;SDS011;57332;51.320;-0.580;2024-01-30T10:06:43;0.55;;;0.22;;
69991;SDS011;57332;51.320;-0.580;2024-01-30T10:09:10;0.30;;;0.30;;
69991;SDS011;57332;51.320;-0.580;2024-01-30T10:11:37;1.55;;;0.50;;
69991;SDS011;57332;51.320;-0.580;2024-01-30T10:14:04;0.77;;;0.40;;
69991;SDS011;57332;51.320;-0.580;2024-01-30T10:16:31;1.17;;;0.50;;
69991;SDS011;57332;51.320;-0.580;2024-01-30T10:18:58;0.65;;;0.38;;
69991;SDS011;57332;51.320;-0.580;2024-01-30T10:21:25;0.60;;;0.30;;
69991;SDS011;57332;51.320;-0.580;2024-01-30T10:23:52;2.28;;;0.55;;
69991;SDS011;57332;51.320;-0.580;2024-01-30T10:26:19;0.47;;;0.30;;
69991;SDS011;57332;51.320;-0.580;2024-01-30T10:28:47;0.20;;;0.20;;
69991;SDS011;57332;51.320;-0.580;2024-01-30T10:31:18;0.28;;;0.25;;
69991;SDS011;57332;51.320;-0.580;2024-01-30T10:33:45;0.73;;;0.43;;
69991;SDS011;57332;51.320;-0.580;2024-01-30T10:36:13;0.45;;;0.30;;
69991;SDS011;57332;51.320;-0.580;2024-01-30T10:38:44;0.60;;;0.30;;
69991;SDS011;57332;51.320;-0.580;2024-01-30T10:41:13;1.23;;;0.22;;
69991;SDS011;57332;51.320;-0.580;2024-01-30T10:43:41;0.60;;;0.30;;
69991;SDS011;57332;51.320;-0.580;2024-01-30T10:46:10;0.15;;;0.15;;
69991;SDS011;57332;51.320;-0.580;2024-01-30T10:48:41;1.00;;;0.40;;
69991;SDS011;57332;51.320;-0.580;2024-01-30T10:51:10;0.70;;;0.40;;
69991;SDS011;57332;51.320;-0.580;2024-01-30T10:53:38;0.20;;;0.20;;
69991;SDS011;57332;51.320;-0.580;2024-01-30T10:56:05;1.13;;;0.40;;
69991;SDS011;57332;51.320;-0.580;2024-01-30T10:58:32;0.73;;;0.20;;
69991;SDS011;57332;51.320;-0.580;2024-01-30T11:00:59;0.88;;;0.20;;
69991;SDS011;57332;51.320;-0.580;2024-01-30T11:03:27;0.20;;;0.20;;
69991;SDS011;57332;51.320;-0.580;2024-01-30T11:05:54;0.50;;;0.20;;
69991;SDS011;57332;51.320;-0.580;2024-01-30T11:08:24;0.13;;;0.10;;
69991;SDS011;57332;51.320;-0.580;2024-01-30T11:10:55;0.63;;;0.10;;
69991;SDS011;57332;51.320;-0.580;2024-01-30T11:13:22;0.35;;;0.32;;
69991;SDS011;57332;51.320;-0.580;2024-01-30T11:15:49;0.55;;;0.30;;
69991;SDS011;57332;51.320;-0.580;2024-01-30T11:18:22;1.42;;;0.32;;
69991;SDS011;57332;51.320;-0.580;2024-01-30T11:20:49;0.65;;;0.32;;
69991;SDS011;57332;51.320;-0.580;2024-01-30T11:23:16;0.43;;;0.35;;
69991;SDS011;57332;51.320;-0.580;2024-01-30T11:25:43;1.35;;;0.32;;
69991;SDS011;57332;51.320;-0.580;2024-01-30T11:28:16;0.10;;;0.10;;
69991;SDS011;57332;51.320;-0.580;2024-01-30T11:30:43;0.75;;;0.20;;
69991;SDS011;57332;51.320;-0.580;2024-01-30T11:33:12;0.30;;;0.20;;
69991;SDS011;57332;51.320;-0.580;2024-01-30T11:35:43;0.30;;;0.20;;
69991;SDS011;57332;51.320;-0.580;2024-01-30T11:38:13;1.17;;;0.28;;
69991;SDS011;57332;51.320;-0.580;2024-01-30T11:40:40;0.63;;;0.20;;
69991;SDS011;57332;51.320;-0.580;2024-01-30T11:43:08;0.60;;;0.20;;
69991;SDS011;57332;51.320;-0.580;2024-01-30T11:45:36;0.32;;;0.28;;
69991;SDS011;57332;51.320;-0.580;2024-01-30T11:48:03;1.55;;;0.20;;
69991;SDS011;57332;51.320;-0.580;2024-01-30T11:50:34;2.40;;;0.30;;
69991;SDS011;57332;51.320;-0.580;2024-01-30T11:53:02;0.45;;;0.40;;
69991;SDS011;57332;51.320;-0.580;2024-01-30T11:55:29;0.43;;;0.30;;
69991;SDS011;57332;51.320;-0.580;2024-01-30T11:58:00;0.20;;;0.20;;
69991;SDS011;57332;51.320;-0.580;2024-01-30T12:00:28;0.50;;;0.30;;
69991;SDS011;57332;51.320;-0.580;2024-01-30T12:02:57;0.20;;;0.20;;
69991;SDS011;57332;51.320;-0.580;2024-01-30T12:05:27;1.50;;;0.32;;
69991;SDS011;57332;51.320;-0.580;2024-01-30T12:07:55;2.20;;;0.35;;
69991;SDS011;57332;51.320;-0.580;2024-01-30T12:10:25;0.45;;;0.25;;
69991;SDS011;57332;51.320;-0.580;2024-01-30T12:12:53;1.25;;;0.40;;
69991;SDS011;57332;51.320;-0.580;2024-01-30T12:15:21;1.10;;;0.30;;
69991;SDS011;57332;51.320;-0.580;2024-01-30T12:17:48;0.52;;;0.22;;
69991;SDS011;57332;51.320;-0.580;2024-01-30T12:20:18;0.95;;;0.20;;
69991;SDS011;57332;51.320;-0.580;2024-01-30T12:22:47;0.50;;;0.10;;
69991;SDS011;57332;51.320;-0.580;2024-01-30T12:25:17;1.33;;;0.40;;
69991;SDS011;57332;51.320;-0.580;2024-01-30T12:27:46;0.60;;;0.43;;
69991;SDS011;57332;51.320;-0.580;2024-01-30T12:30:13;0.50;;;0.30;;
69991;SDS011;57332;51.320;-0.580;2024-01-30T12:32:41;0.60;;;0.30;;
69991;SDS011;57332;51.320;-0.580;2024-01-30T12:35:16;0.35;;;0.20;;
69991;SDS011;57332;51.320;-0.580;2024-01-30T12:37:44;0.43;;;0.20;;
69991;SDS011;57332;51.320;-0.580;2024-01-30T12:40:12;0.77;;;0.20;;
69991;SDS011;57332;51.320;-0.580;2024-01-30T12:42:42;0.38;;;0.20;;
69991;SDS011;57332;51.320;-0.580;2024-01-30T12:45:18;1.00;;;0.43;;
69991;SDS011;57332;51.320;-0.580;2024-01-30T12:47:48;1.35;;;0.47;;
69991;SDS011;57332;51.320;-0.580;2024-01-30T12:50:15;0.65;;;0.40;;
69991;SDS011;57332;51.320;-0.580;2024-01-30T12:52:44;0.88;;;0.30;;
69991;SDS011;57332;51.320;-0.580;2024-01-30T12:55:15;1.65;;;0.40;;
69991;SDS011;57332;51.320;-0.580;2024-01-30T12:57:42;1.50;;;0.63;;
69991;SDS011;57332;51.320;-0.580;2024-01-30T13:00:10;1.05;;;0.60;;
69991;SDS011;57332;51.320;-0.580;2024-01-30T13:02:37;2.13;;;0.70;;
69991;SDS011;57332;51.320;-0.580;2024-01-30T13:05:04;0.47;;;0.20;;
69991;SDS011;57332;51.320;-0.580;2024-01-30T13:07:31;0.73;;;0.43;;
69991;SDS011;57332;51.320;-0.580;2024-01-30T13:09:58;0.50;;;0.25;;
69991;SDS011;57332;51.320;-0.580;2024-01-30T13:14:57;0.30;;;0.30;;
69991;SDS011;57332;51.320;-0.580;2024-01-30T13:17:23;0.75;;;0.45;;
69991;SDS011;57332;51.320;-0.580;2024-01-30T13:19:50;0.63;;;0.50;;
69991;SDS011;57332;51.320;-0.580;2024-01-30T13:22:17;1.48;;;0.50;;
69991;SDS011;57332;51.320;-0.580;2024-01-30T13:24:44;0.93;;;0.40;;
69991;SDS011;57332;51.320;-0.580;2024-01-30T13:27:11;0.55;;;0.43;;
69991;SDS011;57332;51.320;-0.580;2024-01-30T13:29:38;0.70;;;0.50;;
69991;SDS011;57332;51.320;-0.580;2024-01-30T13:32:05;2.15;;;0.50;;
69991;SDS011;57332;51.320;-0.580;2024-01-30T13:34:32;1.52;;;0.55;;
69991;SDS011;57332;51.320;-0.580;2024-01-30T13:36:59;1.42;;;0.63;;
69991;SDS011;57332;51.320;-0.580;2024-01-30T13:39:26;0.98;;;0.52;;
69991;SDS011;57332;51.320;-0.580;2024-01-30T13:42:02;1.55;;;0.50;;
69991;SDS011;57332;51.320;-0.580;2024-01-30T13:44:29;2.72;;;0.50;;
69991;SDS011;57332;51.320;-0.580;2024-01-30T13:46:56;0.73;;;0.50;;
69991;SDS011;57332;51.320;-0.580;2024-01-30T13:49:23;1.00;;;0.40;;
69991;SDS011;57332;51.320;-0.580;2024-01-30T13:51:50;2.00;;;0.50;;
69991;SDS011;57332;51.320;-0.580;2024-01-30T13:54:17;1.23;;;0.60;;
69991;SDS011;57332;51.320;-0.580;2024-01-30T13:56:44;0.93;;;0.40;;
69991;SDS011;57332;51.320;-0.580;2024-01-30T13:59:11;2.30;;;0.50;;
69991;SDS011;57332;51.320;-0.580;2024-01-30T14:01:38;1.05;;;0.30;;
69991;SDS011;57332;51.320;-0.580;2024-01-30T14:04:06;1.10;;;0.50;;
69991;SDS011;57332;51.320;-0.580;2024-01-30T14:06:37;2.05;;;0.80;;
69991;SDS011;57332;51.320;-0.580;2024-01-30T14:09:15;2.92;;;1.20;;
69991;SDS011;57332;51.320;-0.580;2024-01-30T14:11:42;1.58;;;0.90;;
69991;SDS011;57332;51.320;-0.580;2024-01-30T14:14:09;2.47;;;1.23;;
69991;SDS011;57332;51.320;-0.580;2024-01-30T14:16:36;3.10;;;1.10;;
69991;SDS011;57332;51.320;-0.580;2024-01-30T14:19:03;1.55;;;0.80;;
69991;SDS011;57332;51.320;-0.580;2024-01-30T14:21:30;2.20;;;0.90;;
69991;SDS011;57332;51.320;-0.580;2024-01-30T14:23:57;1.50;;;0.95;;
69991;SDS011;57332;51.320;-0.580;2024-01-30T14:26:24;1.42;;;0.85;;
69991;SDS011;57332;51.320;-0.580;2024-01-30T14:28:51;1.20;;;0.80;;
69991;SDS011;57332;51.320;-0.580;2024-01-30T14:31:17;0.63;;;0.50;;
69991;SDS011;57332;51.320;-0.580;2024-01-30T14:33:45;1.00;;;0.57;;
69991;SDS011;57332;51.320;-0.580;2024-01-30T14:36:12;1.55;;;0.55;;
69991;SDS011;57332;51.320;-0.580;2024-01-30T14:38:40;1.52;;;0.93;;